Time;durP1;ratioP1;P1;durP2;ratioP2;P2;SDS_P1;SDS_P2;PMS_P1;PMS_P2;Temp;Humidity;BMP_temperature;BMP_pressure;BME280_temperature;BME280_humidity;BME280_pressure;Samples;Min_cycle;Max_cycle;Signal;HPM_P1;HPM_P2
2021/04/23 00:00:14;;;;;;;4.05;2.72;;;;;;;;;;5015141;28;20484;-71
2021/04/23 00:02:40;;;;;;;7.03;2.35;;;;;;;;;;5027614;28;20029;-70
2021/04/23 00:05:06;;;;;;;5.97;2.30;;;;;;;;;;5012805;28;20026;-70
2021/04/23 00:07:32;;;;;;;7.82;2.95;;;;;;;;;;5001981;28;20056;-70
2021/04/23 00:09:58;;;;;;;6.88;2.00;;;;;;;;;;5018017;28;20439;-71
2021/04/23 00:12:24;;;;;;;7.55;2.20;;;;;;;;;;5018516;28;20380;-70
2021/04/23 00:14:52;;;;;;;5.80;2.22;;;;;;;;;;5026018;28;20061;-70
2021/04/23 00:17:19;;;;;;;9.63;2.42;;;;;;;;;;5023970;28;20025;-71
2021/04/23 00:19:46;;;;;;;4.82;2.47;;;;;;;;;;5024874;28;20037;-71
2021/04/23 00:22:12;;;;;;;9.32;3.03;;;;;;;;;;5020839;28;20037;-70
2021/04/23 00:24:38;;;;;;;6.93;1.80;;;;;;;;;;5016627;28;20041;-70
2021/04/23 00:27:07;;;;;;;3.53;2.10;;;;;;;;;;5018135;28;20514;-71
2021/04/23 00:29:34;;;;;;;6.38;2.53;;;;;;;;;;5024955;28;20104;-70
2021/04/23 00:34:45;;;;;;;10.60;2.83;;;;;;;;;;5029026;28;20121;-70
2021/04/23 00:37:11;;;;;;;5.38;2.75;;;;;;;;;;5023932;28;20037;-71
2021/04/23 00:39:37;;;;;;;4.45;2.20;;;;;;;;;;5015695;28;20475;-70
2021/04/23 00:42:05;;;;;;;7.22;2.40;;;;;;;;;;5020705;28;20033;-71
2021/04/23 00:44:31;;;;;;;4.80;2.17;;;;;;;;;;5024607;28;20113;-71
2021/04/23 00:46:57;;;;;;;9.07;2.92;;;;;;;;;;5023129;28;20033;-70
2021/04/23 00:49:23;;;;;;;3.78;2.10;;;;;;;;;;5021630;28;20112;-70
2021/04/23 00:51:59;;;;;;;4.78;2.35;;;;;;;;;;5025551;28;20045;-71
2021/04/23 00:54:26;;;;;;;9.95;2.70;;;;;;;;;;5028507;28;20107;-70
2021/04/23 00:56:52;;;;;;;7.95;2.20;;;;;;;;;;5025285;28;20033;-70
2021/04/23 00:59:19;;;;;;;7.72;2.20;;;;;;;;;;5017778;28;20087;-71
2021/04/23 01:01:45;;;;;;;5.97;2.40;;;;;;;;;;5015449;28;20057;-70
2021/04/23 01:04:13;;;;;;;6.47;2.17;;;;;;;;;;5026067;28;20025;-70
2021/04/23 01:06:40;;;;;;;7.82;2.67;;;;;;;;;;5016556;28;20034;-70
2021/04/23 01:09:11;;;;;;;7.57;2.55;;;;;;;;;;5015890;28;20053;-70
2021/04/23 01:11:37;;;;;;;4.43;2.28;;;;;;;;;;5022577;28;20361;-70
2021/04/23 01:14:04;;;;;;;6.38;2.30;;;;;;;;;;5019512;28;20083;-70
2021/04/23 01:16:30;;;;;;;8.40;2.55;;;;;;;;;;5025862;28;20101;-70
2021/04/23 01:18:56;;;;;;;6.40;2.40;;;;;;;;;;5025852;28;20428;-70
2021/04/23 01:21:30;;;;;;;11.98;3.38;;;;;;;;;;5013599;28;20133;-70
2021/04/23 01:23:57;;;;;;;5.63;2.67;;;;;;;;;;5020454;28;20029;-70
2021/04/23 01:26:24;;;;;;;7.82;3.03;;;;;;;;;;5020769;28;20025;-70
2021/04/23 01:28:51;;;;;;;6.65;2.55;;;;;;;;;;5012916;28;20034;-70
2021/04/23 01:31:18;;;;;;;12.63;3.10;;;;;;;;;;5012356;28;20392;-70
2021/04/23 01:33:46;;;;;;;4.03;2.13;;;;;;;;;;5021289;28;20026;-70
2021/04/23 01:36:15;;;;;;;6.28;2.63;;;;;;;;;;5025448;28;20033;-70
2021/04/23 01:38:42;;;;;;;5.22;2.78;;;;;;;;;;5019576;28;20104;-70
2021/04/23 01:41:08;;;;;;;9.05;3.17;;;;;;;;;;5016825;28;20025;-71
2021/04/23 01:43:35;;;;;;;7.53;3.50;;;;;;;;;;5022421;28;20040;-70
2021/04/23 01:46:01;;;;;;;12.63;2.70;;;;;;;;;;5014635;28;20022;-70
2021/04/23 01:48:27;;;;;;;12.48;3.28;;;;;;;;;;5012364;28;20057;-70
2021/04/23 01:50:53;;;;;;;6.03;2.85;;;;;;;;;;5022791;28;20060;-71
2021/04/23 01:53:19;;;;;;;7.82;3.67;;;;;;;;;;5015469;28;20026;-70
2021/04/23 01:55:46;;;;;;;8.98;3.30;;;;;;;;;;5015309;28;20034;-70
2021/04/23 01:58:12;;;;;;;14.15;3.28;;;;;;;;;;5027881;28;20071;-70
2021/04/23 02:00:41;;;;;;;8.90;3.55;;;;;;;;;;5023426;28;20530;-70
2021/04/23 02:03:09;;;;;;;8.77;3.28;;;;;;;;;;5016973;28;20068;-71
2021/04/23 02:05:35;;;;;;;7.55;3.38;;;;;;;;;;5018805;28;20044;-71
2021/04/23 02:08:02;;;;;;;9.85;3.75;;;;;;;;;;5020745;28;20025;-71
2021/04/23 02:10:30;;;;;;;10.02;2.60;;;;;;;;;;5021236;28;20494;-70
2021/04/23 02:12:55;;;;;;;15.40;3.65;;;;;;;;;;5011460;28;20113;-71
2021/04/23 02:15:26;;;;;;;9.38;3.08;;;;;;;;;;5021949;28;20116;-71
2021/04/23 02:17:52;;;;;;;8.00;3.13;;;;;;;;;;5012809;28;20116;-70
2021/04/23 02:20:21;;;;;;;8.98;2.90;;;;;;;;;;5009459;28;20669;-70
2021/04/23 02:22:48;;;;;;;7.47;3.25;;;;;;;;;;5020781;28;20556;-71
2021/04/23 02:25:16;;;;;;;8.65;3.33;;;;;;;;;;5014332;28;20029;-71
2021/04/23 02:27:42;;;;;;;7.72;3.28;;;;;;;;;;5017431;28;20412;-70
2021/04/23 02:30:10;;;;;;;9.45;3.97;;;;;;;;;;5013838;28;20033;-71
2021/04/23 02:32:36;;;;;;;9.63;4.20;;;;;;;;;;5023689;28;20023;-71
2021/04/23 02:35:02;;;;;;;12.45;3.22;;;;;;;;;;5029885;28;20583;-71
2021/04/23 02:37:28;;;;;;;10.15;3.80;;;;;;;;;;5014975;28;20469;-70
2021/04/23 02:39:54;;;;;;;7.70;3.10;;;;;;;;;;5029183;28;20040;-70
2021/04/23 02:42:20;;;;;;;12.93;3.78;;;;;;;;;;5025561;28;20136;-71
2021/04/23 02:44:46;;;;;;;18.33;4.00;;;;;;;;;;5021801;28;20033;-71
2021/04/23 02:47:12;;;;;;;10.63;3.33;;;;;;;;;;5028068;28;20076;-71
2021/04/23 02:49:38;;;;;;;8.27;2.90;;;;;;;;;;5027188;28;20462;-71
2021/04/23 02:52:04;;;;;;;9.77;3.65;;;;;;;;;;5023922;28;20084;-70
2021/04/23 02:54:30;;;;;;;13.73;3.55;;;;;;;;;;5025685;28;20033;-71
2021/04/23 02:56:56;;;;;;;8.00;3.05;;;;;;;;;;5021763;28;20362;-70
2021/04/23 02:59:22;;;;;;;12.85;3.47;;;;;;;;;;5019189;28;20451;-70
2021/04/23 03:01:49;;;;;;;11.82;3.47;;;;;;;;;;5024825;28;20033;-71
2021/04/23 03:04:15;;;;;;;9.60;2.80;;;;;;;;;;5027271;28;20112;-70
2021/04/23 03:06:42;;;;;;;7.20;3.65;;;;;;;;;;5024352;28;20449;-70
2021/04/23 03:09:08;;;;;;;9.48;2.80;;;;;;;;;;5028370;28;20048;-71
2021/04/23 03:11:35;;;;;;;9.40;3.33;;;;;;;;;;5022284;28;20105;-71
2021/04/23 03:14:01;;;;;;;9.45;2.60;;;;;;;;;;5018472;28;20499;-70
2021/04/23 03:16:29;;;;;;;9.13;3.47;;;;;;;;;;5023545;28;20095;-70
2021/04/23 03:18:55;;;;;;;11.65;3.38;;;;;;;;;;5019754;28;20034;-70
2021/04/23 03:21:23;;;;;;;9.65;2.95;;;;;;;;;;5017451;28;20040;-71
2021/04/23 03:23:49;;;;;;;16.67;3.90;;;;;;;;;;5020719;28;20037;-71
2021/04/23 03:26:15;;;;;;;12.32;3.22;;;;;;;;;;5023188;28;20017;-70
2021/04/23 03:28:42;;;;;;;15.50;3.60;;;;;;;;;;5026781;28;20100;-70
2021/04/23 03:31:10;;;;;;;5.43;2.72;;;;;;;;;;5019441;28;20441;-72
2021/04/23 03:33:36;;;;;;;11.55;2.83;;;;;;;;;;5021348;28;20080;-71
2021/04/23 03:36:04;;;;;;;5.88;2.85;;;;;;;;;;5021180;28;20080;-70
2021/04/23 03:38:31;;;;;;;3.47;2.42;;;;;;;;;;5023384;28;20516;-70
2021/04/23 03:40:58;;;;;;;9.65;3.40;;;;;;;;;;5018090;28;20380;-70
2021/04/23 03:43:25;;;;;;;16.92;3.70;;;;;;;;;;5029110;28;20087;-70
2021/04/23 03:45:52;;;;;;;7.13;3.47;;;;;;;;;;5016790;28;20038;-70
2021/04/23 03:48:18;;;;;;;10.38;3.45;;;;;;;;;;5022091;28;20025;-70
2021/04/23 03:50:44;;;;;;;5.60;2.85;;;;;;;;;;5018942;28;20099;-74
2021/04/23 03:53:12;;;;;;;7.47;3.30;;;;;;;;;;5023501;28;20037;-72
2021/04/23 03:55:40;;;;;;;9.13;3.40;;;;;;;;;;5017478;28;20523;-72
2021/04/23 03:58:06;;;;;;;12.00;3.33;;;;;;;;;;5018256;28;20029;-71
2021/04/23 04:00:34;;;;;;;16.10;3.15;;;;;;;;;;5018980;28;20558;-71
2021/04/23 04:03:00;;;;;;;6.85;3.10;;;;;;;;;;5012318;28;20029;-71
2021/04/23 04:05:26;;;;;;;7.38;3.58;;;;;;;;;;5021776;28;20037;-71
2021/04/23 04:07:52;;;;;;;11.77;3.63;;;;;;;;;;5022053;28;20091;-71
2021/04/23 04:10:18;;;;;;;10.07;3.17;;;;;;;;;;5024900;28;20037;-71
2021/04/23 04:12:44;;;;;;;12.88;3.83;;;;;;;;;;5022438;28;20112;-72
2021/04/23 04:15:10;;;;;;;7.25;3.53;;;;;;;;;;5025647;28;20037;-71
2021/04/23 04:17:37;;;;;;;14.40;3.10;;;;;;;;;;5023368;28;20480;-71
2021/04/23 04:20:04;;;;;;;8.52;2.83;;;;;;;;;;5021423;28;20041;-72
2021/04/23 04:22:30;;;;;;;10.43;4.07;;;;;;;;;;5022632;28;20119;-71
2021/04/23 04:24:56;;;;;;;16.05;3.33;;;;;;;;;;5022473;28;20164;-71
2021/04/23 04:27:22;;;;;;;8.32;3.67;;;;;;;;;;5022200;28;20025;-71
2021/04/23 04:29:48;;;;;;;8.30;3.20;;;;;;;;;;5022407;28;20501;-71
2021/04/23 04:32:15;;;;;;;16.25;4.95;;;;;;;;;;5023084;28;20026;-72
2021/04/23 04:34:41;;;;;;;10.95;3.47;;;;;;;;;;5023459;28;20040;-72
2021/04/23 04:37:07;;;;;;;10.75;3.33;;;;;;;;;;5021351;28;20033;-72
2021/04/23 04:39:33;;;;;;;7.45;2.80;;;;;;;;;;5022480;28;20018;-72
2021/04/23 04:41:58;;;;;;;9.35;3.10;;;;;;;;;;5024295;28;20056;-71
2021/04/23 04:44:24;;;;;;;9.60;3.33;;;;;;;;;;5023141;28;20108;-71
2021/04/23 04:46:50;;;;;;;9.65;3.17;;;;;;;;;;5020268;28;20464;-72
2021/04/23 04:49:16;;;;;;;7.47;2.67;;;;;;;;;;5024285;28;20033;-72
2021/04/23 04:51:42;;;;;;;6.47;3.03;;;;;;;;;;5020057;28;20041;-73
2021/04/23 04:54:08;;;;;;;6.03;2.95;;;;;;;;;;5010914;28;20029;-73
2021/04/23 04:56:34;;;;;;;14.23;3.88;;;;;;;;;;5022002;28;20082;-71
2021/04/23 04:59:00;;;;;;;7.43;3.28;;;;;;;;;;5023078;28;20403;-71
2021/04/23 05:01:26;;;;;;;5.05;2.33;;;;;;;;;;5020279;28;20561;-72
2021/04/23 05:03:52;;;;;;;10.88;3.60;;;;;;;;;;5011206;28;20481;-69
2021/04/23 05:06:19;;;;;;;8.77;3.30;;;;;;;;;;5015791;28;20032;-71
2021/04/23 05:08:45;;;;;;;7.00;2.95;;;;;;;;;;5018301;28;20022;-71
2021/04/23 05:11:11;;;;;;;11.32;3.25;;;;;;;;;;5016234;28;20079;-72
2021/04/23 05:13:37;;;;;;;12.95;2.95;;;;;;;;;;5018224;28;20037;-73
2021/04/23 05:16:08;;;;;;;11.05;3.10;;;;;;;;;;5018700;28;20491;-73
2021/04/23 05:18:33;;;;;;;6.32;2.65;;;;;;;;;;5015710;28;20037;-72
2021/04/23 05:20:59;;;;;;;11.70;3.30;;;;;;;;;;5018195;28;20455;-71
2021/04/23 05:23:26;;;;;;;7.70;2.88;;;;;;;;;;5013940;28;20384;-72
2021/04/23 05:25:52;;;;;;;5.97;2.50;;;;;;;;;;5015812;28;20029;-70
2021/04/23 05:28:18;;;;;;;9.95;3.47;;;;;;;;;;5021654;28;20052;-71
2021/04/23 05:30:44;;;;;;;8.73;3.05;;;;;;;;;;5022814;28;20065;-72
2021/04/23 05:33:10;;;;;;;10.25;2.97;;;;;;;;;;5017695;28;20053;-71
2021/04/23 05:35:38;;;;;;;6.10;2.75;;;;;;;;;;5019661;28;20057;-73
2021/04/23 05:38:04;;;;;;;11.90;3.70;;;;;;;;;;5020452;28;20026;-71
2021/04/23 05:40:30;;;;;;;8.25;3.05;;;;;;;;;;5022223;28;20559;-71
2021/04/23 05:42:56;;;;;;;7.95;3.10;;;;;;;;;;5022543;28;20029;-70
2021/04/23 05:45:23;;;;;;;7.05;3.20;;;;;;;;;;5023227;28;20064;-72
2021/04/23 05:47:49;;;;;;;9.95;3.08;;;;;;;;;;5001833;28;20521;-72
2021/04/23 05:50:15;;;;;;;19.63;3.72;;;;;;;;;;5015394;28;20033;-73
2021/04/23 05:52:42;;;;;;;7.22;2.50;;;;;;;;;;5016951;28;20432;-73
2021/04/23 05:55:15;;;;;;;9.38;3.78;;;;;;;;;;5017295;28;20040;-73
2021/04/23 05:57:41;;;;;;;8.55;2.88;;;;;;;;;;5011705;28;20033;-73
2021/04/23 06:00:09;;;;;;;6.63;2.85;;;;;;;;;;5013832;28;20025;-73
2021/04/23 06:02:36;;;;;;;5.50;3.05;;;;;;;;;;5023126;28;20128;-73
2021/04/23 06:05:02;;;;;;;7.50;3.13;;;;;;;;;;5019973;28;20034;-74
2021/04/23 06:07:28;;;;;;;7.40;2.95;;;;;;;;;;5017011;28;20376;-74
2021/04/23 06:09:54;;;;;;;11.88;3.28;;;;;;;;;;5020659;28;20448;-74
2021/04/23 06:12:20;;;;;;;8.77;2.85;;;;;;;;;;5024110;28;20018;-74
2021/04/23 06:14:49;;;;;;;11.05;3.53;;;;;;;;;;5021410;28;20029;-76
2021/04/23 06:17:15;;;;;;;11.05;2.85;;;;;;;;;;5005557;28;20045;-72
2021/04/23 06:19:41;;;;;;;9.05;2.30;;;;;;;;;;5021383;28;20053;-73
2021/04/23 06:22:08;;;;;;;10.30;3.22;;;;;;;;;;5018643;28;20508;-71
2021/04/23 06:24:34;;;;;;;10.23;2.95;;;;;;;;;;5020142;28;20492;-72
2021/04/23 06:27:00;;;;;;;8.68;2.78;;;;;;;;;;5020632;28;20017;-72
2021/04/23 06:29:28;;;;;;;9.70;2.70;;;;;;;;;;5013818;28;20045;-72
2021/04/23 06:31:54;;;;;;;10.27;3.22;;;;;;;;;;5016000;28;20030;-71
2021/04/23 06:34:20;;;;;;;7.00;2.60;;;;;;;;;;5028230;28;20167;-72
2021/04/23 06:36:46;;;;;;;6.70;2.75;;;;;;;;;;5028009;28;20599;-72
2021/04/23 06:39:14;;;;;;;11.05;2.80;;;;;;;;;;5021774;28;20034;-72
2021/04/23 06:41:40;;;;;;;10.60;2.95;;;;;;;;;;5024475;28;20037;-72
2021/04/23 06:44:06;;;;;;;9.70;2.75;;;;;;;;;;5026959;28;20022;-72
2021/04/23 06:46:32;;;;;;;7.32;2.75;;;;;;;;;;5029656;28;20155;-71
2021/04/23 06:48:58;;;;;;;8.05;2.65;;;;;;;;;;5017296;28;20472;-71
2021/04/23 06:51:24;;;;;;;6.68;2.65;;;;;;;;;;5031287;28;20046;-71
2021/04/23 06:53:50;;;;;;;5.05;2.28;;;;;;;;;;5013983;28;20022;-73
2021/04/23 06:56:16;;;;;;;8.95;3.42;;;;;;;;;;5014771;28;20667;-72
2021/04/23 06:58:43;;;;;;;10.23;2.80;;;;;;;;;;5013492;28;20477;-71
2021/04/23 07:01:09;;;;;;;7.88;2.95;;;;;;;;;;5019422;28;20068;-72
2021/04/23 07:03:35;;;;;;;5.63;2.42;;;;;;;;;;5017839;28;20045;-72
2021/04/23 07:06:01;;;;;;;8.77;2.25;;;;;;;;;;5025099;28;20045;-72
2021/04/23 07:08:27;;;;;;;4.38;1.90;;;;;;;;;;5022870;28;20530;-69
2021/04/23 07:10:53;;;;;;;13.65;3.13;;;;;;;;;;5019591;28;20477;-71
2021/04/23 07:13:19;;;;;;;10.77;2.30;;;;;;;;;;5021911;28;20064;-70
2021/04/23 07:15:45;;;;;;;19.88;2.47;;;;;;;;;;5000663;28;20417;-70
2021/04/23 07:18:12;;;;;;;8.50;2.45;;;;;;;;;;5012561;28;20477;-71
2021/04/23 07:20:38;;;;;;;3.95;1.83;;;;;;;;;;5028799;28;20037;-70
2021/04/23 07:23:04;;;;;;;9.65;2.83;;;;;;;;;;5027808;28;20053;-70
2021/04/23 07:25:30;;;;;;;11.35;2.85;;;;;;;;;;5014211;28;20425;-70
2021/04/23 07:27:59;;;;;;;5.95;2.50;;;;;;;;;;5011011;28;20033;-70
2021/04/23 07:30:27;;;;;;;6.05;2.00;;;;;;;;;;5028274;28;20021;-70
2021/04/23 07:32:53;;;;;;;10.88;2.13;;;;;;;;;;5024586;28;20018;-70
2021/04/23 07:35:19;;;;;;;8.05;2.25;;;;;;;;;;5029487;28;20487;-70
2021/04/23 07:37:45;;;;;;;9.55;2.33;;;;;;;;;;5030514;28;20030;-71
2021/04/23 07:40:12;;;;;;;9.25;2.50;;;;;;;;;;5023238;28;20026;-70
2021/04/23 07:42:38;;;;;;;6.90;2.25;;;;;;;;;;5025327;28;20122;-70
2021/04/23 07:45:05;;;;;;;10.90;2.25;;;;;;;;;;5029601;28;20030;-70
2021/04/23 07:47:31;;;;;;;4.95;2.53;;;;;;;;;;5027529;28;20056;-70
2021/04/23 07:49:57;;;;;;;8.73;2.13;;;;;;;;;;5030361;28;20084;-70
2021/04/23 07:52:23;;;;;;;7.57;1.95;;;;;;;;;;5022829;28;20022;-70
2021/04/23 07:54:49;;;;;;;6.68;2.65;;;;;;;;;;5025299;28;20041;-71
2021/04/23 07:57:15;;;;;;;15.05;2.45;;;;;;;;;;5021424;28;20037;-71
2021/04/23 07:59:41;;;;;;;4.28;1.85;;;;;;;;;;5022084;28;20209;-72
2021/04/23 08:02:08;;;;;;;5.93;1.90;;;;;;;;;;5028391;28;20040;-70
2021/04/23 08:04:37;;;;;;;11.85;2.17;;;;;;;;;;5021983;28;20052;-71
2021/04/23 08:07:05;;;;;;;4.75;2.13;;;;;;;;;;5025471;28;20025;-71
2021/04/23 08:09:31;;;;;;;11.63;3.15;;;;;;;;;;5025288;28;20021;-71
2021/04/23 08:11:57;;;;;;;9.02;2.08;;;;;;;;;;5019032;28;20030;-70
2021/04/23 08:14:23;;;;;;;13.00;2.05;;;;;;;;;;5015759;28;20029;-71
2021/04/23 08:16:48;;;;;;;5.45;1.98;;;;;;;;;;5027020;28;20068;-73
2021/04/23 08:19:14;;;;;;;8.55;2.78;;;;;;;;;;5013597;28;20161;-71
2021/04/23 08:21:40;;;;;;;6.30;2.03;;;;;;;;;;5024107;28;20029;-70
2021/04/23 08:24:06;;;;;;;3.83;1.77;;;;;;;;;;5019091;28;20040;-72
2021/04/23 08:26:32;;;;;;;7.50;2.00;;;;;;;;;;5012788;28;20148;-72
2021/04/23 08:28:58;;;;;;;9.43;1.92;;;;;;;;;;5020118;28;20053;-72
2021/04/23 08:31:24;;;;;;;2.42;1.60;;;;;;;;;;5020793;28;20568;-72
2021/04/23 08:33:50;;;;;;;4.72;2.15;;;;;;;;;;5020797;28;20021;-72
2021/04/23 08:36:16;;;;;;;11.30;2.13;;;;;;;;;;5027140;28;20083;-72
2021/04/23 08:38:42;;;;;;;16.13;2.95;;;;;;;;;;5027101;28;20029;-72
2021/04/23 08:41:08;;;;;;;11.00;1.88;;;;;;;;;;5025798;28;20026;-73
2021/04/23 08:43:35;;;;;;;7.82;2.70;;;;;;;;;;5020543;28;20565;-73
2021/04/23 08:46:02;;;;;;;9.20;1.98;;;;;;;;;;5027070;28;20030;-72
2021/04/23 08:48:28;;;;;;;7.20;2.08;;;;;;;;;;5028035;28;20547;-73
2021/04/23 08:50:54;;;;;;;9.13;2.13;;;;;;;;;;5021074;28;20057;-72
2021/04/23 08:53:20;;;;;;;6.72;2.00;;;;;;;;;;5027119;28;20544;-72
2021/04/23 08:55:46;;;;;;;9.93;2.20;;;;;;;;;;5015710;28;20523;-73
2021/04/23 08:58:13;;;;;;;5.05;2.13;;;;;;;;;;5023269;28;20061;-73
2021/04/23 09:00:39;;;;;;;4.57;1.80;;;;;;;;;;5019422;28;20052;-72
2021/04/23 09:03:08;;;;;;;8.20;1.73;;;;;;;;;;5023400;28;20075;-72
2021/04/23 09:05:34;;;;;;;8.13;1.98;;;;;;;;;;5015469;28;20033;-72
2021/04/23 09:08:00;;;;;;;16.85;2.70;;;;;;;;;;5021263;28;20087;-74
2021/04/23 09:10:25;;;;;;;9.93;1.88;;;;;;;;;;5022765;28;20491;-72
2021/04/23 09:13:04;;;;;;;3.80;1.73;;;;;;;;;;5012042;28;20030;-71
2021/04/23 09:15:30;;;;;;;6.25;1.77;;;;;;;;;;5021272;28;20034;-72
2021/04/23 09:18:06;;;;;;;6.85;2.20;;;;;;;;;;5026424;28;20452;-72
2021/04/23 09:20:32;;;;;;;10.13;1.98;;;;;;;;;;5016983;28;20048;-72
2021/04/23 09:23:16;;;;;;;11.48;1.92;;;;;;;;;;5018462;28;20033;-72
2021/04/23 09:25:47;;;;;;;12.20;2.17;;;;;;;;;;5012082;28;20029;-72
2021/04/23 09:28:13;;;;;;;4.68;1.63;;;;;;;;;;5018060;28;20108;-72
2021/04/23 09:30:39;;;;;;;13.05;1.77;;;;;;;;;;5019744;28;20033;-72
2021/04/23 09:33:21;;;;;;;14.82;1.85;;;;;;;;;;5012539;28;20072;-72
2021/04/23 09:35:47;;;;;;;4.10;1.67;;;;;;;;;;5017046;28;20055;-72
2021/04/23 09:38:15;;;;;;;9.63;1.98;;;;;;;;;;5020687;28;20033;-71
2021/04/23 09:40:41;;;;;;;7.38;1.45;;;;;;;;;;5008267;28;20805;-71
2021/04/23 09:43:08;;;;;;;8.55;1.90;;;;;;;;;;5018904;28;20117;-71
2021/04/23 09:45:35;;;;;;;5.80;1.40;;;;;;;;;;5024237;28;20109;-72
2021/04/23 09:48:01;;;;;;;11.70;1.73;;;;;;;;;;5027862;28;20033;-71
2021/04/23 09:50:30;;;;;;;11.25;1.83;;;;;;;;;;5022605;28;20057;-71
2021/04/23 09:52:57;;;;;;;6.82;1.75;;;;;;;;;;5027994;28;20468;-71
2021/04/23 09:55:27;;;;;;;6.20;1.70;;;;;;;;;;5028726;28;20036;-71
2021/04/23 09:57:53;;;;;;;3.42;1.75;;;;;;;;;;5024788;28;20037;-71
2021/04/23 10:00:21;;;;;;;3.28;1.50;;;;;;;;;;5017452;28;20061;-71
2021/04/23 10:02:50;;;;;;;2.40;1.10;;;;;;;;;;5024341;28;20061;-72
2021/04/23 10:05:35;;;;;;;4.03;1.58;;;;;;;;;;5026920;28;20032;-71
2021/04/23 10:08:02;;;;;;;5.88;1.90;;;;;;;;;;5017300;28;20629;-71
2021/04/23 10:10:28;;;;;;;3.70;1.52;;;;;;;;;;5016476;28;20022;-71
2021/04/23 10:13:03;;;;;;;2.47;1.25;;;;;;;;;;5024232;28;20025;-70
2021/04/23 10:15:30;;;;;;;5.70;1.63;;;;;;;;;;5014271;28;20635;-72
2021/04/23 10:18:12;;;;;;;4.38;1.73;;;;;;;;;;5012108;28;20468;-70
2021/04/23 10:20:40;;;;;;;3.60;1.30;;;;;;;;;;5022186;28;20052;-71
2021/04/23 10:23:08;;;;;;;7.78;1.92;;;;;;;;;;5026655;28;20033;-71
2021/04/23 10:25:35;;;;;;;6.95;1.85;;;;;;;;;;5020571;28;20041;-70
2021/04/23 10:28:01;;;;;;;7.65;1.90;;;;;;;;;;5021001;28;20057;-71
2021/04/23 10:30:29;;;;;;;6.25;1.65;;;;;;;;;;5020453;28;20022;-71
2021/04/23 10:32:56;;;;;;;3.85;1.40;;;;;;;;;;5017671;28;20034;-70
2021/04/23 10:35:26;;;;;;;5.00;1.60;;;;;;;;;;5027951;28;20087;-71
2021/04/23 10:37:53;;;;;;;4.65;1.30;;;;;;;;;;5019463;28;20030;-71
2021/04/23 10:40:23;;;;;;;8.48;1.77;;;;;;;;;;5013079;28;20033;-71
2021/04/23 10:42:59;;;;;;;4.72;1.27;;;;;;;;;;5017561;28;20034;-71
2021/04/23 10:45:26;;;;;;;2.85;1.10;;;;;;;;;;5022658;28;20029;-70
2021/04/23 10:47:53;;;;;;;9.18;1.30;;;;;;;;;;5025388;28;20093;-71
2021/04/23 10:50:37;;;;;;;5.53;1.83;;;;;;;;;;5022257;28;20058;-70
2021/04/23 10:53:07;;;;;;;5.03;1.40;;;;;;;;;;5016609;28;20040;-71
2021/04/23 10:55:39;;;;;;;4.03;1.40;;;;;;;;;;5030280;28;20029;-71
2021/04/23 10:58:05;;;;;;;6.88;1.65;;;;;;;;;;5029853;28;20087;-71
2021/04/23 11:00:32;;;;;;;8.23;1.55;;;;;;;;;;5011595;28;20030;-70
2021/04/23 11:03:17;;;;;;;4.22;1.23;;;;;;;;;;5011813;28;20037;-71
2021/04/23 11:05:44;;;;;;;3.55;1.63;;;;;;;;;;5028233;28;20029;-71
2021/04/23 11:08:10;;;;;;;4.75;1.40;;;;;;;;;;5022211;28;20418;-70
2021/04/23 11:10:55;;;;;;;3.25;1.48;;;;;;;;;;5023452;28;20101;-70
2021/04/23 11:13:28;;;;;;;8.93;1.63;;;;;;;;;;5023040;28;20018;-71
2021/04/23 11:16:12;;;;;;;3.08;1.27;;;;;;;;;;5019274;28;20068;-70
2021/04/23 11:18:38;;;;;;;11.93;2.00;;;;;;;;;;5023473;28;20116;-71
2021/04/23 11:21:23;;;;;;;2.92;1.40;;;;;;;;;;5027354;28;20454;-70
2021/04/23 11:24:07;;;;;;;5.32;1.30;;;;;;;;;;5019107;28;20044;-70
2021/04/23 11:26:51;;;;;;;5.90;1.55;;;;;;;;;;5023440;28;20562;-70
2021/04/23 11:29:17;;;;;;;7.32;1.20;;;;;;;;;;5015700;28;20761;-70
2021/04/23 11:32:15;;;;;;;7.13;1.38;;;;;;;;;;5024415;28;20068;-70
2021/04/23 11:34:43;;;;;;;4.30;1.45;;;;;;;;;;4973820;28;20072;-70
2021/04/23 11:37:16;;;;;;;5.00;1.10;;;;;;;;;;5021780;28;20097;-70
2021/04/23 11:39:44;;;;;;;2.55;1.10;;;;;;;;;;5020058;28;20065;-70
2021/04/23 11:42:14;;;;;;;1.38;1.00;;;;;;;;;;5022292;28;20144;-70
2021/04/23 11:44:40;;;;;;;5.72;1.13;;;;;;;;;;5018990;28;20038;-70
2021/04/23 11:47:06;;;;;;;2.53;1.08;;;;;;;;;;5029565;28;20156;-69
2021/04/23 11:49:33;;;;;;;4.68;1.50;;;;;;;;;;5027970;28;20033;-71
2021/04/23 11:52:01;;;;;;;3.00;1.42;;;;;;;;;;5021594;28;20045;-70
2021/04/23 11:54:38;;;;;;;1.45;0.90;;;;;;;;;;5016958;28;20029;-71
2021/04/23 11:57:06;;;;;;;2.60;1.30;;;;;;;;;;5018167;28;20033;-71
2021/04/23 11:59:32;;;;;;;2.63;1.15;;;;;;;;;;5016138;28;20034;-70
2021/04/23 12:01:58;;;;;;;2.90;1.27;;;;;;;;;;5019961;28;20037;-72
2021/04/23 12:05:00;;;;;;;3.65;1.27;;;;;;;;;;5025518;28;20033;-71
2021/04/23 12:07:26;;;;;;;;;;;;;;;;;;4947897;29;20110;-71
2021/04/23 12:10:05;;;;;;;1.75;0.85;;;;;;;;;;5000278;28;19996;-71
2021/04/23 12:12:31;;;;;;;3.28;1.20;;;;;;;;;;5019905;28;20028;-71
2021/04/23 12:14:57;;;;;;;2.83;1.17;;;;;;;;;;5027765;28;20034;-71
2021/04/23 12:17:23;;;;;;;4.65;1.45;;;;;;;;;;5026193;28;20034;-71
2021/04/23 12:19:49;;;;;;;5.00;1.50;;;;;;;;;;5013348;28;20033;-71
2021/04/23 12:22:15;;;;;;;3.42;1.52;;;;;;;;;;5023198;28;20026;-72
2021/04/23 12:24:41;;;;;;;3.17;1.27;;;;;;;;;;5028457;28;20423;-72
2021/04/23 12:27:07;;;;;;;6.32;1.30;;;;;;;;;;5025106;28;20124;-71
2021/04/23 12:29:36;;;;;;;2.67;1.30;;;;;;;;;;5018214;28;20028;-71
2021/04/23 12:32:01;;;;;;;1.17;0.90;;;;;;;;;;5022576;28;20030;-72
2021/04/23 12:34:27;;;;;;;2.75;1.15;;;;;;;;;;5023802;28;20029;-71
2021/04/23 12:36:53;;;;;;;3.78;1.20;;;;;;;;;;5027986;28;20590;-71
2021/04/23 12:39:20;;;;;;;8.70;1.13;;;;;;;;;;5023447;28;20113;-71
2021/04/23 12:41:56;;;;;;;4.55;1.60;;;;;;;;;;5024775;28;20029;-71
2021/04/23 12:44:32;;;;;;;7.20;1.25;;;;;;;;;;5024315;28;20405;-71
2021/04/23 12:47:00;;;;;;;10.48;1.88;;;;;;;;;;5022934;28;20029;-72
2021/04/23 12:49:27;;;;;;;7.07;1.27;;;;;;;;;;5025565;28;20067;-72
2021/04/23 12:51:55;;;;;;;4.15;1.15;;;;;;;;;;5022875;28;20111;-71
2021/04/23 12:54:28;;;;;;;7.68;1.23;;;;;;;;;;5017832;28;20022;-70
2021/04/23 12:56:55;;;;;;;6.07;1.25;;;;;;;;;;5019240;28;20484;-76
2021/04/23 12:59:34;;;;;;;8.70;1.40;;;;;;;;;;5022619;28;20025;-72
2021/04/23 13:02:01;;;;;;;4.10;1.70;;;;;;;;;;5013588;28;20033;-73
2021/04/23 13:04:27;;;;;;;5.32;1.45;;;;;;;;;;5023200;28;20057;-73
2021/04/23 13:06:54;;;;;;;11.73;1.30;;;;;;;;;;5017627;28;20041;-73
2021/04/23 13:09:21;;;;;;;3.10;1.40;;;;;;;;;;5022636;28;20395;-72
2021/04/23 13:11:47;;;;;;;2.00;1.10;;;;;;;;;;5021924;28;20163;-72
2021/04/23 13:14:15;;;;;;;3.45;1.13;;;;;;;;;;5016065;28;20033;-71
2021/04/23 13:17:01;;;;;;;1.13;0.82;;;;;;;;;;5022670;28;20033;-70
2021/04/23 13:19:53;;;;;;;3.85;1.92;;;;;;;;;;5018234;28;20060;-72
2021/04/23 13:22:19;;;;;;;3.28;1.17;;;;;;;;;;5020736;28;20609;-77
2021/04/23 13:24:45;;;;;;;7.22;2.00;;;;;;;;;;5005728;28;20562;-72
2021/04/23 13:27:34;;;;;;;3.60;1.20;;;14.40;50.40;;;;;;5012636;28;20030;-73
2021/04/23 13:30:03;;;;;;;4.22;1.38;;;;;;;;;;5020081;28;20048;-69
2021/04/23 13:32:47;;;;;;;3.15;1.25;;;;;;;;;;5012882;28;20032;-72
2021/04/23 13:35:15;;;;;;;4.85;1.42;;;;;;;;;;5022597;28;20042;-71
2021/04/23 13:37:41;;;;;;;5.00;1.20;;;;;;;;;;5023863;28;20491;-71
2021/04/23 13:40:08;;;;;;;5.55;1.80;;;;;;;;;;5017394;28;20115;-71
2021/04/23 13:42:35;;;;;;;3.58;1.60;;;;;;;;;;5019945;28;20041;-73
2021/04/23 13:45:11;;;;;;;3.38;1.30;;;;;;;;;;5019527;28;20029;-74
2021/04/23 13:47:41;;;;;;;2.67;1.17;;;;;;;;;;5018021;28;20030;-74
2021/04/23 13:50:20;;;;;;;5.93;1.63;;;;;;;;;;5014430;28;20056;-74
2021/04/23 13:52:46;;;;;;;4.00;1.20;;;;;;;;;;5023212;28;20026;-75
2021/04/23 13:55:15;;;;;;;3.00;1.20;;;;;;;;;;5019459;28;20025;-72
2021/04/23 13:57:58;;;;;;;2.72;0.95;;;;;;;;;;5015962;28;20038;-71
2021/04/23 14:00:24;;;;;;;3.53;1.17;;;;;;;;;;5026359;28;20087;-71
2021/04/23 14:02:58;;;;;;;5.47;1.40;;;;;;;;;;5020622;28;20526;-70
2021/04/23 14:05:30;;;;;;;6.53;1.42;;;;;;;;;;5021049;28;20029;-74
2021/04/23 14:07:56;;;;;;;11.02;1.30;;;;;;;;;;5021782;28;20032;-70
2021/04/23 14:10:22;;;;;;;4.22;1.13;;;;;;;;;;5015219;28;20344;-71
2021/04/23 14:12:48;;;;;;;3.15;1.33;;;;;;;;;;5021230;28;20021;-71
2021/04/23 14:15:14;;;;;;;4.07;1.42;;;;;;;;;;5013749;28;20472;-71
2021/04/23 14:17:41;;;;;;;2.63;1.17;;;;;;;;;;5022450;28;20030;-71
2021/04/23 14:20:08;;;;;;;6.47;1.25;;;;;;;;;;5017763;28;20037;-70
2021/04/23 14:22:33;;;;;;;3.67;1.42;;;;;;;;;;5023598;28;20483;-70
2021/04/23 14:24:59;;;;;;;4.93;1.65;;;;;;;;;;5018102;28;20049;-71
2021/04/23 14:27:25;;;;;;;5.88;1.45;;;;;;;;;;5023055;28;20030;-71
2021/04/23 14:29:51;;;;;;;3.03;1.40;;;;;;;;;;5023162;28;20036;-71
2021/04/23 14:32:17;;;;;;;2.90;1.52;;;;;;;;;;5020034;28;20022;-71
2021/04/23 14:34:43;;;;;;;6.47;1.70;;;;;;;;;;5026524;28;20117;-70
2021/04/23 14:37:09;;;;;;;3.15;1.35;;;;;;;;;;5027032;28;20112;-71
2021/04/23 14:39:35;;;;;;;4.25;1.40;;;;;;;;;;5021011;28;20547;-70
2021/04/23 14:42:01;;;;;;;4.50;1.30;;;;;;;;;;5024949;28;20650;-77
2021/04/23 14:44:27;;;;;;;0.95;0.82;;;;;;;;;;5021002;28;20022;-72
2021/04/23 14:46:56;;;;;;;2.95;1.08;;;;;;;;;;5026892;28;20394;-73